sensor_id;sensor_type;location;lat;lon;timestamp;P1;durP1;ratioP1;P2;durP2;ratioP2
46284;SDS011;32018;59.182;18.148;2023-07-30T00:00:59;0.70;;;0.70;;
46284;SDS011;32018;59.182;18.148;2023-07-30T00:03:24;0.90;;;0.90;;
46284;SDS011;32018;59.182;18.148;2023-07-30T00:05:53;0.70;;;0.70;;
46284;SDS011;32018;59.182;18.148;2023-07-30T00:08:19;0.80;;;0.80;;
46284;SDS011;32018;59.182;18.148;2023-07-30T00:10:44;0.70;;;0.70;;
46284;SDS011;32018;59.182;18.148;2023-07-30T00:13:09;0.77;;;0.73;;
46284;SDS011;32018;59.182;18.148;2023-07-30T00:15:34;0.77;;;0.70;;
46284;SDS011;32018;59.182;18.148;2023-07-30T00:17:59;0.67;;;0.60;;
46284;SDS011;32018;59.182;18.148;2023-07-30T00:20:25;0.70;;;0.70;;
46284;SDS011;32018;59.182;18.148;2023-07-30T00:22:50;0.60;;;0.60;;
46284;SDS011;32018;59.182;18.148;2023-07-30T00:25:15;0.63;;;0.63;;
46284;SDS011;32018;59.182;18.148;2023-07-30T00:27:40;0.87;;;0.87;;
46284;SDS011;32018;59.182;18.148;2023-07-30T00:30:06;0.75;;;0.70;;
46284;SDS011;32018;59.182;18.148;2023-07-30T00:32:31;0.70;;;0.70;;
46284;SDS011;32018;59.182;18.148;2023-07-30T00:34:56;0.95;;;0.70;;
46284;SDS011;32018;59.182;18.148;2023-07-30T00:37:22;0.70;;;0.70;;
46284;SDS011;32018;59.182;18.148;2023-07-30T00:39:47;0.60;;;0.60;;
46284;SDS011;32018;59.182;18.148;2023-07-30T00:42:12;0.60;;;0.60;;
46284;SDS011;32018;59.182;18.148;2023-07-30T00:44:37;0.68;;;0.68;;
46284;SDS011;32018;59.182;18.148;2023-07-30T00:47:03;0.50;;;0.50;;
46284;SDS011;32018;59.182;18.148;2023-07-30T00:49:28;0.60;;;0.60;;
46284;SDS011;32018;59.182;18.148;2023-07-30T00:51:53;0.60;;;0.60;;
46284;SDS011;32018;59.182;18.148;2023-07-30T00:54:21;0.60;;;0.60;;
46284;SDS011;32018;59.182;18.148;2023-07-30T00:56:49;0.70;;;0.70;;
46284;SDS011;32018;59.182;18.148;2023-07-30T00:59:14;0.60;;;0.60;;
46284;SDS011;32018;59.182;18.148;2023-07-30T01:01:39;0.70;;;0.70;;
46284;SDS011;32018;59.182;18.148;2023-07-30T01:04:06;0.70;;;0.70;;
46284;SDS011;32018;59.182;18.148;2023-07-30T01:06:32;0.67;;;0.67;;
46284;SDS011;32018;59.182;18.148;2023-07-30T01:08:57;0.57;;;0.57;;
46284;SDS011;32018;59.182;18.148;2023-07-30T01:11:23;0.60;;;0.60;;
46284;SDS011;32018;59.182;18.148;2023-07-30T01:13:48;0.70;;;0.70;;
46284;SDS011;32018;59.182;18.148;2023-07-30T01:16:14;0.70;;;0.70;;
46284;SDS011;32018;59.182;18.148;2023-07-30T01:18:39;0.70;;;0.70;;
46284;SDS011;32018;59.182;18.148;2023-07-30T01:21:04;0.55;;;0.55;;
46284;SDS011;32018;59.182;18.148;2023-07-30T01:23:29;0.77;;;0.77;;
46284;SDS011;32018;59.182;18.148;2023-07-30T01:26:07;0.60;;;0.60;;
46284;SDS011;32018;59.182;18.148;2023-07-30T01:28:35;0.70;;;0.70;;
46284;SDS011;32018;59.182;18.148;2023-07-30T01:31:02;0.70;;;0.70;;
46284;SDS011;32018;59.182;18.148;2023-07-30T01:33:28;1.15;;;0.70;;
46284;SDS011;32018;59.182;18.148;2023-07-30T01:35:54;0.80;;;0.80;;
46284;SDS011;32018;59.182;18.148;2023-07-30T01:38:20;0.70;;;0.70;;
46284;SDS011;32018;59.182;18.148;2023-07-30T01:40:46;0.70;;;0.70;;
46284;SDS011;32018;59.182;18.148;2023-07-30T01:43:11;0.73;;;0.70;;
46284;SDS011;32018;59.182;18.148;2023-07-30T01:45:37;0.70;;;0.70;;
46284;SDS011;32018;59.182;18.148;2023-07-30T01:48:02;0.90;;;0.90;;
46284;SDS011;32018;59.182;18.148;2023-07-30T01:50:29;0.90;;;0.65;;
46284;SDS011;32018;59.182;18.148;2023-07-30T01:52:54;0.87;;;0.83;;
46284;SDS011;32018;59.182;18.148;2023-07-30T01:55:19;0.80;;;0.80;;
46284;SDS011;32018;59.182;18.148;2023-07-30T01:57:44;0.73;;;0.73;;
46284;SDS011;32018;59.182;18.148;2023-07-30T02:00:10;0.73;;;0.73;;
46284;SDS011;32018;59.182;18.148;2023-07-30T02:02:35;0.73;;;0.73;;
46284;SDS011;32018;59.182;18.148;2023-07-30T02:05:00;0.80;;;0.80;;
46284;SDS011;32018;59.182;18.148;2023-07-30T02:07:26;0.93;;;0.80;;
46284;SDS011;32018;59.182;18.148;2023-07-30T02:09:51;0.60;;;0.60;;
46284;SDS011;32018;59.182;18.148;2023-07-30T02:12:16;0.70;;;0.70;;
46284;SDS011;32018;59.182;18.148;2023-07-30T02:14:42;0.70;;;0.70;;
46284;SDS011;32018;59.182;18.148;2023-07-30T02:17:07;0.80;;;0.80;;
46284;SDS011;32018;59.182;18.148;2023-07-30T02:19:32;0.70;;;0.70;;
46284;SDS011;32018;59.182;18.148;2023-07-30T02:21:57;0.57;;;0.57;;
46284;SDS011;32018;59.182;18.148;2023-07-30T02:24:22;0.73;;;0.70;;
46284;SDS011;32018;59.182;18.148;2023-07-30T02:26:48;0.53;;;0.53;;
46284;SDS011;32018;59.182;18.148;2023-07-30T02:29:13;0.60;;;0.60;;
46284;SDS011;32018;59.182;18.148;2023-07-30T02:31:39;0.70;;;0.70;;
46284;SDS011;32018;59.182;18.148;2023-07-30T02:34:04;0.73;;;0.70;;
46284;SDS011;32018;59.182;18.148;2023-07-30T02:36:29;0.87;;;0.80;;
46284;SDS011;32018;59.182;18.148;2023-07-30T02:38:54;0.80;;;0.80;;
46284;SDS011;32018;59.182;18.148;2023-07-30T02:41:19;0.80;;;0.80;;
46284;SDS011;32018;59.182;18.148;2023-07-30T02:43:47;0.70;;;0.70;;
46284;SDS011;32018;59.182;18.148;2023-07-30T02:46:12;0.77;;;0.77;;
46284;SDS011;32018;59.182;18.148;2023-07-30T02:48:37;0.70;;;0.70;;
46284;SDS011;32018;59.182;18.148;2023-07-30T02:51:02;0.70;;;0.70;;
46284;SDS011;32018;59.182;18.148;2023-07-30T02:53:28;0.97;;;0.80;;
46284;SDS011;32018;59.182;18.148;2023-07-30T02:55:53;0.85;;;0.73;;
46284;SDS011;32018;59.182;18.148;2023-07-30T02:58:19;0.80;;;0.80;;
46284;SDS011;32018;59.182;18.148;2023-07-30T03:00:44;0.70;;;0.70;;
46284;SDS011;32018;59.182;18.148;2023-07-30T03:03:09;0.90;;;0.90;;
46284;SDS011;32018;59.182;18.148;2023-07-30T03:05:34;1.00;;;1.00;;
46284;SDS011;32018;59.182;18.148;2023-07-30T03:07:59;0.60;;;0.60;;
46284;SDS011;32018;59.182;18.148;2023-07-30T03:10:25;0.80;;;0.80;;
46284;SDS011;32018;59.182;18.148;2023-07-30T03:12:50;0.70;;;0.70;;
46284;SDS011;32018;59.182;18.148;2023-07-30T03:15:15;1.20;;;0.80;;
46284;SDS011;32018;59.182;18.148;2023-07-30T03:17:40;0.80;;;0.80;;
46284;SDS011;32018;59.182;18.148;2023-07-30T03:20:06;0.77;;;0.77;;
46284;SDS011;32018;59.182;18.148;2023-07-30T03:22:31;0.70;;;0.70;;
46284;SDS011;32018;59.182;18.148;2023-07-30T03:24:59;0.80;;;0.80;;
46284;SDS011;32018;59.182;18.148;2023-07-30T03:27:24;0.73;;;0.73;;
46284;SDS011;32018;59.182;18.148;2023-07-30T03:29:49;0.60;;;0.60;;
46284;SDS011;32018;59.182;18.148;2023-07-30T03:32:15;0.77;;;0.77;;
46284;SDS011;32018;59.182;18.148;2023-07-30T03:34:40;0.80;;;0.80;;
46284;SDS011;32018;59.182;18.148;2023-07-30T03:37:05;0.80;;;0.80;;
46284;SDS011;32018;59.182;18.148;2023-07-30T03:39:33;1.55;;;1.08;;
46284;SDS011;32018;59.182;18.148;2023-07-30T03:42:01;0.88;;;0.88;;
46284;SDS011;32018;59.182;18.148;2023-07-30T03:44:26;1.02;;;0.80;;
46284;SDS011;32018;59.182;18.148;2023-07-30T03:46:51;0.80;;;0.80;;
46284;SDS011;32018;59.182;18.148;2023-07-30T03:49:17;1.10;;;0.90;;
46284;SDS011;32018;59.182;18.148;2023-07-30T03:51:42;1.10;;;0.80;;
46284;SDS011;32018;59.182;18.148;2023-07-30T03:54:07;1.15;;;0.98;;
46284;SDS011;32018;59.182;18.148;2023-07-30T03:56:32;1.00;;;1.00;;
46284;SDS011;32018;59.182;18.148;2023-07-30T03:58:58;1.23;;;1.10;;
46284;SDS011;32018;59.182;18.148;2023-07-30T04:01:23;1.20;;;1.10;;
46284;SDS011;32018;59.182;18.148;2023-07-30T04:03:48;0.70;;;0.70;;
46284;SDS011;32018;59.182;18.148;2023-07-30T04:06:16;0.82;;;0.82;;
46284;SDS011;32018;59.182;18.148;2023-07-30T04:08:41;0.77;;;0.77;;
46284;SDS011;32018;59.182;18.148;2023-07-30T04:11:07;0.90;;;0.90;;
46284;SDS011;32018;59.182;18.148;2023-07-30T04:13:32;0.70;;;0.70;;
46284;SDS011;32018;59.182;18.148;2023-07-30T04:15:57;0.90;;;0.90;;
46284;SDS011;32018;59.182;18.148;2023-07-30T04:18:22;0.80;;;0.80;;
46284;SDS011;32018;59.182;18.148;2023-07-30T04:20:48;0.90;;;0.90;;
46284;SDS011;32018;59.182;18.148;2023-07-30T04:23:13;1.50;;;1.00;;
46284;SDS011;32018;59.182;18.148;2023-07-30T04:25:38;1.07;;;0.97;;
46284;SDS011;32018;59.182;18.148;2023-07-30T04:28:04;1.20;;;1.10;;
46284;SDS011;32018;59.182;18.148;2023-07-30T04:30:29;1.13;;;0.90;;
46284;SDS011;32018;59.182;18.148;2023-07-30T04:32:56;0.80;;;0.80;;
46284;SDS011;32018;59.182;18.148;2023-07-30T04:35:21;0.80;;;0.80;;
46284;SDS011;32018;59.182;18.148;2023-07-30T04:37:47;0.90;;;0.90;;
46284;SDS011;32018;59.182;18.148;2023-07-30T04:40:12;0.80;;;0.80;;
46284;SDS011;32018;59.182;18.148;2023-07-30T04:42:37;1.05;;;0.95;;
46284;SDS011;32018;59.182;18.148;2023-07-30T04:45:02;0.77;;;0.77;;
46284;SDS011;32018;59.182;18.148;2023-07-30T04:47:28;0.80;;;0.80;;
46284;SDS011;32018;59.182;18.148;2023-07-30T04:49:53;0.90;;;0.90;;
46284;SDS011;32018;59.182;18.148;2023-07-30T04:52:18;0.80;;;0.80;;
46284;SDS011;32018;59.182;18.148;2023-07-30T04:54:44;1.05;;;1.00;;
46284;SDS011;32018;59.182;18.148;2023-07-30T04:57:09;1.13;;;1.05;;
46284;SDS011;32018;59.182;18.148;2023-07-30T04:59:34;1.00;;;1.00;;
46284;SDS011;32018;59.182;18.148;2023-07-30T05:02:00;0.98;;;0.75;;
46284;SDS011;32018;59.182;18.148;2023-07-30T05:04:25;0.80;;;0.80;;
46284;SDS011;32018;59.182;18.148;2023-07-30T05:06:50;1.30;;;1.20;;
46284;SDS011;32018;59.182;18.148;2023-07-30T05:09:16;0.80;;;0.80;;
46284;SDS011;32018;59.182;18.148;2023-07-30T05:11:43;1.33;;;0.90;;
46284;SDS011;32018;59.182;18.148;2023-07-30T05:14:08;0.90;;;0.90;;
46284;SDS011;32018;59.182;18.148;2023-07-30T05:16:35;1.05;;;0.90;;
46284;SDS011;32018;59.182;18.148;2023-07-30T05:19:01;0.80;;;0.80;;
46284;SDS011;32018;59.182;18.148;2023-07-30T05:21:26;1.00;;;1.00;;
46284;SDS011;32018;59.182;18.148;2023-07-30T05:23:51;1.83;;;1.73;;
46284;SDS011;32018;59.182;18.148;2023-07-30T05:26:17;0.90;;;0.90;;
46284;SDS011;32018;59.182;18.148;2023-07-30T05:28:42;0.85;;;0.85;;
46284;SDS011;32018;59.182;18.148;2023-07-30T05:31:07;0.70;;;0.70;;
46284;SDS011;32018;59.182;18.148;2023-07-30T05:33:35;0.90;;;0.90;;
46284;SDS011;32018;59.182;18.148;2023-07-30T05:36:00;1.10;;;1.00;;
46284;SDS011;32018;59.182;18.148;2023-07-30T05:38:25;0.80;;;0.80;;
46284;SDS011;32018;59.182;18.148;2023-07-30T05:40:50;0.80;;;0.80;;
46284;SDS011;32018;59.182;18.148;2023-07-30T05:43:16;1.80;;;1.70;;
46284;SDS011;32018;59.182;18.148;2023-07-30T05:45:41;1.38;;;1.25;;
46284;SDS011;32018;59.182;18.148;2023-07-30T05:48:06;1.40;;;1.30;;
46284;SDS011;32018;59.182;18.148;2023-07-30T05:50:31;0.73;;;0.73;;
46284;SDS011;32018;59.182;18.148;2023-07-30T05:52:57;1.08;;;1.00;;
46284;SDS011;32018;59.182;18.148;2023-07-30T05:55:22;1.10;;;1.00;;
46284;SDS011;32018;59.182;18.148;2023-07-30T05:57:47;0.75;;;0.75;;
46284;SDS011;32018;59.182;18.148;2023-07-30T06:00:12;0.80;;;0.80;;
46284;SDS011;32018;59.182;18.148;2023-07-30T06:02:38;1.38;;;1.27;;
46284;SDS011;32018;59.182;18.148;2023-07-30T06:05:03;0.90;;;0.90;;
46284;SDS011;32018;59.182;18.148;2023-07-30T06:07:28;0.88;;;0.88;;
46284;SDS011;32018;59.182;18.148;2023-07-30T06:09:53;3.03;;;0.80;;
46284;SDS011;32018;59.182;18.148;2023-07-30T06:12:21;1.30;;;1.23;;
46284;SDS011;32018;59.182;18.148;2023-07-30T06:14:46;2.70;;;2.00;;
46284;SDS011;32018;59.182;18.148;2023-07-30T06:17:11;1.40;;;1.30;;
46284;SDS011;32018;59.182;18.148;2023-07-30T06:19:37;1.98;;;1.77;;
46284;SDS011;32018;59.182;18.148;2023-07-30T06:22:03;1.13;;;1.02;;
46284;SDS011;32018;59.182;18.148;2023-07-30T06:24:28;1.10;;;1.00;;
46284;SDS011;32018;59.182;18.148;2023-07-30T06:26:53;1.07;;;1.03;;
46284;SDS011;32018;59.182;18.148;2023-07-30T06:29:19;2.55;;;2.35;;
46284;SDS011;32018;59.182;18.148;2023-07-30T06:31:44;1.33;;;1.10;;
46284;SDS011;32018;59.182;18.148;2023-07-30T06:34:09;1.13;;;1.13;;
46284;SDS011;32018;59.182;18.148;2023-07-30T06:36:34;1.27;;;1.20;;
46284;SDS011;32018;59.182;18.148;2023-07-30T06:39:00;2.38;;;1.90;;
46284;SDS011;32018;59.182;18.148;2023-07-30T06:41:25;0.90;;;0.90;;
46284;SDS011;32018;59.182;18.148;2023-07-30T06:43:50;1.47;;;1.37;;
46284;SDS011;32018;59.182;18.148;2023-07-30T06:46:16;0.90;;;0.90;;
46284;SDS011;32018;59.182;18.148;2023-07-30T06:48:41;1.27;;;0.90;;
46284;SDS011;32018;59.182;18.148;2023-07-30T06:51:06;1.67;;;1.57;;
46284;SDS011;32018;59.182;18.148;2023-07-30T06:53:32;2.38;;;1.55;;
46284;SDS011;32018;59.182;18.148;2023-07-30T06:56:00;1.10;;;1.00;;
46284;SDS011;32018;59.182;18.148;2023-07-30T06:58:25;1.47;;;1.37;;
46284;SDS011;32018;59.182;18.148;2023-07-30T07:00:50;1.73;;;1.23;;
46284;SDS011;32018;59.182;18.148;2023-07-30T07:03:16;1.10;;;1.00;;
46284;SDS011;32018;59.182;18.148;2023-07-30T07:05:41;1.52;;;1.42;;
46284;SDS011;32018;59.182;18.148;2023-07-30T07:08:06;3.20;;;2.27;;
46284;SDS011;32018;59.182;18.148;2023-07-30T07:10:31;1.53;;;1.37;;
46284;SDS011;32018;59.182;18.148;2023-07-30T07:13:00;3.55;;;2.38;;
46284;SDS011;32018;59.182;18.148;2023-07-30T07:15:25;2.67;;;2.13;;
46284;SDS011;32018;59.182;18.148;2023-07-30T07:17:50;1.77;;;1.67;;
46284;SDS011;32018;59.182;18.148;2023-07-30T07:20:15;1.30;;;1.20;;
46284;SDS011;32018;59.182;18.148;2023-07-30T07:22:41;2.95;;;2.15;;
46284;SDS011;32018;59.182;18.148;2023-07-30T07:25:06;1.27;;;1.17;;
46284;SDS011;32018;59.182;18.148;2023-07-30T07:27:31;1.90;;;1.58;;
46284;SDS011;32018;59.182;18.148;2023-07-30T07:29:56;2.17;;;1.20;;
46284;SDS011;32018;59.182;18.148;2023-07-30T07:32:22;2.20;;;2.00;;
46284;SDS011;32018;59.182;18.148;2023-07-30T07:34:47;1.08;;;1.05;;
46284;SDS011;32018;59.182;18.148;2023-07-30T07:37:13;2.60;;;1.58;;
46284;SDS011;32018;59.182;18.148;2023-07-30T07:39:43;1.30;;;1.20;;
46284;SDS011;32018;59.182;18.148;2023-07-30T07:42:08;2.08;;;1.50;;
46284;SDS011;32018;59.182;18.148;2023-07-30T07:44:34;2.05;;;1.90;;
46284;SDS011;32018;59.182;18.148;2023-07-30T07:46:59;0.90;;;0.90;;
46284;SDS011;32018;59.182;18.148;2023-07-30T07:49:24;1.30;;;1.20;;
46284;SDS011;32018;59.182;18.148;2023-07-30T07:51:49;1.93;;;1.73;;
46284;SDS011;32018;59.182;18.148;2023-07-30T07:54:15;1.77;;;1.60;;
46284;SDS011;32018;59.182;18.148;2023-07-30T07:56:40;1.90;;;1.67;;
46284;SDS011;32018;59.182;18.148;2023-07-30T07:59:05;1.70;;;1.60;;
46284;SDS011;32018;59.182;18.148;2023-07-30T08:01:30;2.20;;;2.00;;
46284;SDS011;32018;59.182;18.148;2023-07-30T08:03:55;1.87;;;1.30;;
46284;SDS011;32018;59.182;18.148;2023-07-30T08:06:21;2.27;;;2.07;;
46284;SDS011;32018;59.182;18.148;2023-07-30T08:08:46;1.37;;;1.27;;
46284;SDS011;32018;59.182;18.148;2023-07-30T08:11:11;1.43;;;1.10;;
46284;SDS011;32018;59.182;18.148;2023-07-30T08:13:36;2.00;;;1.90;;
46284;SDS011;32018;59.182;18.148;2023-07-30T08:16:02;2.30;;;1.50;;
46284;SDS011;32018;59.182;18.148;2023-07-30T08:18:27;1.58;;;1.48;;
46284;SDS011;32018;59.182;18.148;2023-07-30T08:20:52;2.13;;;1.92;;
46284;SDS011;32018;59.182;18.148;2023-07-30T08:23:18;2.43;;;2.23;;
46284;SDS011;32018;59.182;18.148;2023-07-30T08:25:46;2.58;;;1.92;;
46284;SDS011;32018;59.182;18.148;2023-07-30T08:28:11;1.52;;;1.42;;
46284;SDS011;32018;59.182;18.148;2023-07-30T08:30:36;1.50;;;1.20;;
46284;SDS011;32018;59.182;18.148;2023-07-30T08:33:02;3.50;;;1.52;;
46284;SDS011;32018;59.182;18.148;2023-07-30T08:35:27;1.33;;;1.20;;
46284;SDS011;32018;59.182;18.148;2023-07-30T08:37:53;2.85;;;2.10;;
46284;SDS011;32018;59.182;18.148;2023-07-30T08:40:20;1.65;;;1.55;;
46284;SDS011;32018;59.182;18.148;2023-07-30T08:42:46;1.70;;;1.48;;
46284;SDS011;32018;59.182;18.148;2023-07-30T08:45:12;1.38;;;1.27;;
46284;SDS011;32018;59.182;18.148;2023-07-30T08:47:38;2.20;;;2.00;;
46284;SDS011;32018;59.182;18.148;2023-07-30T08:50:04;2.15;;;2.05;;
46284;SDS011;32018;59.182;18.148;2023-07-30T08:52:29;2.70;;;2.47;;
46284;SDS011;32018;59.182;18.148;2023-07-30T08:54:56;1.60;;;1.50;;
46284;SDS011;32018;59.182;18.148;2023-07-30T08:57:22;1.63;;;1.52;;
46284;SDS011;32018;59.182;18.148;2023-07-30T08:59:49;1.92;;;1.60;;
46284;SDS011;32018;59.182;18.148;2023-07-30T09:02:19;2.63;;;1.60;;
46284;SDS011;32018;59.182;18.148;2023-07-30T09:04:47;2.55;;;1.85;;
46284;SDS011;32018;59.182;18.148;2023-07-30T09:07:14;1.48;;;1.38;;
46284;SDS011;32018;59.182;18.148;2023-07-30T09:09:39;1.70;;;1.47;;
46284;SDS011;32018;59.182;18.148;2023-07-30T09:12:12;1.73;;;1.60;;
46284;SDS011;32018;59.182;18.148;2023-07-30T09:14:37;1.77;;;1.67;;
46284;SDS011;32018;59.182;18.148;2023-07-30T09:17:03;2.40;;;2.20;;
46284;SDS011;32018;59.182;18.148;2023-07-30T09:19:28;1.83;;;1.73;;
46284;SDS011;32018;59.182;18.148;2023-07-30T09:21:54;1.83;;;1.73;;
46284;SDS011;32018;59.182;18.148;2023-07-30T09:24:22;2.70;;;2.00;;
46284;SDS011;32018;59.182;18.148;2023-07-30T09:26:47;1.70;;;1.60;;
46284;SDS011;32018;59.182;18.148;2023-07-30T09:29:13;1.90;;;1.80;;
46284;SDS011;32018;59.182;18.148;2023-07-30T09:31:48;1.73;;;1.58;;
46284;SDS011;32018;59.182;18.148;2023-07-30T09:34:17;2.38;;;2.17;;
46284;SDS011;32018;59.182;18.148;2023-07-30T09:36:44;1.48;;;1.40;;
46284;SDS011;32018;59.182;18.148;2023-07-30T09:39:42;2.85;;;2.60;;
46284;SDS011;32018;59.182;18.148;2023-07-30T09:42:00;1.70;;;1.60;;
46284;SDS011;32018;59.182;18.148;2023-07-30T09:44:26;2.13;;;2.03;;
46284;SDS011;32018;59.182;18.148;2023-07-30T09:46:52;2.38;;;2.17;;
46284;SDS011;32018;59.182;18.148;2023-07-30T09:49:17;1.80;;;1.70;;
46284;SDS011;32018;59.182;18.148;2023-07-30T09:51:42;3.67;;;3.47;;
46284;SDS011;32018;59.182;18.148;2023-07-30T09:54:09;4.05;;;2.65;;
46284;SDS011;32018;59.182;18.148;2023-07-30T09:56:35;2.08;;;1.98;;
46284;SDS011;32018;59.182;18.148;2023-07-30T09:59:01;2.42;;;2.30;;
46284;SDS011;32018;59.182;18.148;2023-07-30T10:01:26;3.53;;;3.22;;
46284;SDS011;32018;59.182;18.148;2023-07-30T10:03:53;3.75;;;2.65;;
46284;SDS011;32018;59.182;18.148;2023-07-30T10:06:20;2.58;;;2.40;;
46284;SDS011;32018;59.182;18.148;2023-07-30T10:08:48;1.83;;;1.73;;
46284;SDS011;32018;59.182;18.148;2023-07-30T10:11:14;2.80;;;2.50;;
46284;SDS011;32018;59.182;18.148;2023-07-30T10:13:39;2.70;;;2.17;;
46284;SDS011;32018;59.182;18.148;2023-07-30T10:16:11;1.92;;;1.83;;
46284;SDS011;32018;59.182;18.148;2023-07-30T10:18:40;2.80;;;2.60;;
46284;SDS011;32018;59.182;18.148;2023-07-30T10:21:09;3.05;;;2.83;;
46284;SDS011;32018;59.182;18.148;2023-07-30T10:23:35;2.63;;;2.43;;
46284;SDS011;32018;59.182;18.148;2023-07-30T10:26:08;2.50;;;2.40;;
46284;SDS011;32018;59.182;18.148;2023-07-30T10:28:34;3.38;;;2.65;;
46284;SDS011;32018;59.182;18.148;2023-07-30T10:31:02;4.32;;;4.05;;
46284;SDS011;32018;59.182;18.148;2023-07-30T10:36:16;2.40;;;2.20;;
46284;SDS011;32018;59.182;18.148;2023-07-30T10:38:41;3.65;;;3.30;;
46284;SDS011;32018;59.182;18.148;2023-07-30T10:41:08;2.97;;;2.88;;
46284;SDS011;32018;59.182;18.148;2023-07-30T10:43:34;2.92;;;2.72;;
46284;SDS011;32018;59.182;18.148;2023-07-30T10:46:00;1.90;;;1.80;;
46284;SDS011;32018;59.182;18.148;2023-07-30T10:50:57;2.65;;;2.45;;
46284;SDS011;32018;59.182;18.148;2023-07-30T10:53:23;2.72;;;2.53;;
46284;SDS011;32018;59.182;18.148;2023-07-30T10:55:48;3.30;;;3.10;;
46284;SDS011;32018;59.182;18.148;2023-07-30T10:58:13;3.15;;;2.95;;
46284;SDS011;32018;59.182;18.148;2023-07-30T11:00:38;3.10;;;2.60;;
46284;SDS011;32018;59.182;18.148;2023-07-30T11:03:04;2.10;;;2.00;;
46284;SDS011;32018;59.182;18.148;2023-07-30T11:05:29;3.00;;;2.80;;
46284;SDS011;32018;59.182;18.148;2023-07-30T11:07:55;2.47;;;2.28;;
46284;SDS011;32018;59.182;18.148;2023-07-30T11:10:21;2.55;;;2.35;;
46284;SDS011;32018;59.182;18.148;2023-07-30T11:12:48;3.17;;;2.97;;
46284;SDS011;32018;59.182;18.148;2023-07-30T11:15:14;3.05;;;2.85;;
46284;SDS011;32018;59.182;18.148;2023-07-30T11:17:39;2.80;;;2.70;;
46284;SDS011;32018;59.182;18.148;2023-07-30T11:20:05;2.92;;;2.72;;
46284;SDS011;32018;59.182;18.148;2023-07-30T11:22:32;3.08;;;2.88;;
46284;SDS011;32018;59.182;18.148;2023-07-30T11:24:57;2.92;;;2.65;;
46284;SDS011;32018;59.182;18.148;2023-07-30T11:27:23;2.60;;;2.40;;
46284;SDS011;32018;59.182;18.148;2023-07-30T11:29:54;3.30;;;3.10;;
46284;SDS011;32018;59.182;18.148;2023-07-30T11:32:20;2.65;;;2.30;;
46284;SDS011;32018;59.182;18.148;2023-07-30T11:34:45;2.67;;;2.47;;
46284;SDS011;32018;59.182;18.148;2023-07-30T11:37:10;2.55;;;2.35;;
46284;SDS011;32018;59.182;18.148;2023-07-30T11:39:36;3.40;;;2.72;;
46284;SDS011;32018;59.182;18.148;2023-07-30T11:42:01;3.20;;;3.00;;
46284;SDS011;32018;59.182;18.148;2023-07-30T11:44:36;2.80;;;2.60;;
46284;SDS011;32018;59.182;18.148;2023-07-30T11:47:03;11.57;;;2.60;;
46284;SDS011;32018;59.182;18.148;2023-07-30T11:49:29;2.40;;;2.22;;
46284;SDS011;32018;59.182;18.148;2023-07-30T11:52:07;2.40;;;2.23;;
46284;SDS011;32018;59.182;18.148;2023-07-30T11:54:33;3.35;;;3.05;;
46284;SDS011;32018;59.182;18.148;2023-07-30T11:56:58;3.67;;;3.38;;
46284;SDS011;32018;59.182;18.148;2023-07-30T11:59:23;2.33;;;2.22;;
46284;SDS011;32018;59.182;18.148;2023-07-30T12:01:49;2.87;;;2.67;;
46284;SDS011;32018;59.182;18.148;2023-07-30T12:04:14;2.80;;;2.60;;
46284;SDS011;32018;59.182;18.148;2023-07-30T12:09:17;2.70;;;2.50;;
46284;SDS011;32018;59.182;18.148;2023-07-30T12:11:44;2.45;;;2.35;;
46284;SDS011;32018;59.182;18.148;2023-07-30T12:14:09;3.53;;;3.22;;
46284;SDS011;32018;59.182;18.148;2023-07-30T12:16:38;2.87;;;2.67;;
46284;SDS011;32018;59.182;18.148;2023-07-30T12:19:03;3.08;;;2.75;;
46284;SDS011;32018;59.182;18.148;2023-07-30T12:21:28;3.33;;;2.65;;
46284;SDS011;32018;59.182;18.148;2023-07-30T12:23:54;3.23;;;2.80;;
46284;SDS011;32018;59.182;18.148;2023-07-30T12:26:19;2.80;;;2.60;;
46284;SDS011;32018;59.182;18.148;2023-07-30T12:28:45;2.58;;;2.38;;
46284;SDS011;32018;59.182;18.148;2023-07-30T12:31:10;3.73;;;3.43;;
46284;SDS011;32018;59.182;18.148;2023-07-30T12:33:35;2.97;;;2.70;;
46284;SDS011;32018;59.182;18.148;2023-07-30T12:36:01;2.85;;;2.35;;
46284;SDS011;32018;59.182;18.148;2023-07-30T12:38:26;3.00;;;2.80;;
46284;SDS011;32018;59.182;18.148;2023-07-30T12:40:51;4.63;;;3.38;;
46284;SDS011;32018;59.182;18.148;2023-07-30T12:43:16;3.37;;;3.07;;
46284;SDS011;32018;59.182;18.148;2023-07-30T12:45:44;2.85;;;2.65;;
46284;SDS011;32018;59.182;18.148;2023-07-30T12:48:09;2.80;;;2.60;;
46284;SDS011;32018;59.182;18.148;2023-07-30T12:50:34;3.42;;;3.13;;
46284;SDS011;32018;59.182;18.148;2023-07-30T12:52:59;2.67;;;2.47;;
46284;SDS011;32018;59.182;18.148;2023-07-30T12:55:24;2.80;;;2.60;;
46284;SDS011;32018;59.182;18.148;2023-07-30T12:57:50;3.20;;;3.00;;
46284;SDS011;32018;59.182;18.148;2023-07-30T13:00:15;2.60;;;2.40;;
46284;SDS011;32018;59.182;18.148;2023-07-30T13:02:41;2.75;;;2.55;;
46284;SDS011;32018;59.182;18.148;2023-07-30T13:05:06;2.67;;;2.47;;
46284;SDS011;32018;59.182;18.148;2023-07-30T13:07:31;3.35;;;3.08;;
46284;SDS011;32018;59.182;18.148;2023-07-30T13:10:04;2.70;;;2.50;;
46284;SDS011;32018;59.182;18.148;2023-07-30T13:12:29;4.15;;;3.83;;
46284;SDS011;32018;59.182;18.148;2023-07-30T13:14:54;2.87;;;2.63;;
46284;SDS011;32018;59.182;18.148;2023-07-30T13:17:20;2.17;;;1.97;;
46284;SDS011;32018;59.182;18.148;2023-07-30T13:19:45;2.40;;;2.30;;
46284;SDS011;32018;59.182;18.148;2023-07-30T13:22:10;2.23;;;2.13;;
46284;SDS011;32018;59.182;18.148;2023-07-30T13:24:37;2.70;;;2.50;;
46284;SDS011;32018;59.182;18.148;2023-07-30T13:27:04;2.92;;;2.72;;
46284;SDS011;32018;59.182;18.148;2023-07-30T13:29:29;2.90;;;2.70;;
46284;SDS011;32018;59.182;18.148;2023-07-30T13:31:55;3.42;;;3.13;;
46284;SDS011;32018;59.182;18.148;2023-07-30T13:34:21;2.58;;;2.47;;
46284;SDS011;32018;59.182;18.148;2023-07-30T13:36:46;2.90;;;2.50;;
46284;SDS011;32018;59.182;18.148;2023-07-30T13:39:11;2.47;;;2.27;;
46284;SDS011;32018;59.182;18.148;2023-07-30T13:41:36;3.23;;;3.03;;
46284;SDS011;32018;59.182;18.148;2023-07-30T13:44:02;2.78;;;2.45;;
46284;SDS011;32018;59.182;18.148;2023-07-30T13:46:27;2.55;;;2.42;;
46284;SDS011;32018;59.182;18.148;2023-07-30T13:48:52;2.20;;;2.10;;
46284;SDS011;32018;59.182;18.148;2023-07-30T13:51:17;2.43;;;2.23;;
46284;SDS011;32018;59.182;18.148;2023-07-30T13:53:43;2.20;;;2.10;;
46284;SDS011;32018;59.182;18.148;2023-07-30T13:56:08;3.07;;;2.87;;
46284;SDS011;32018;59.182;18.148;2023-07-30T13:58:33;2.22;;;2.03;;
46284;SDS011;32018;59.182;18.148;2023-07-30T14:00:58;2.33;;;2.23;;
46284;SDS011;32018;59.182;18.148;2023-07-30T14:03:24;2.20;;;2.10;;
46284;SDS011;32018;59.182;18.148;2023-07-30T14:05:49;2.87;;;2.67;;
46284;SDS011;32018;59.182;18.148;2023-07-30T14:08:14;2.70;;;2.53;;
46284;SDS011;32018;59.182;18.148;2023-07-30T14:10:39;3.87;;;3.57;;
46284;SDS011;32018;59.182;18.148;2023-07-30T14:13:04;2.90;;;2.70;;
46284;SDS011;32018;59.182;18.148;2023-07-30T14:15:30;2.17;;;2.07;;
46284;SDS011;32018;59.182;18.148;2023-07-30T14:17:56;2.22;;;2.10;;
46284;SDS011;32018;59.182;18.148;2023-07-30T14:20:21;2.30;;;2.20;;
46284;SDS011;32018;59.182;18.148;2023-07-30T14:22:46;2.40;;;2.20;;
46284;SDS011;32018;59.182;18.148;2023-07-30T14:25:12;2.33;;;2.22;;
46284;SDS011;32018;59.182;18.148;2023-07-30T14:27:37;3.03;;;2.83;;
46284;SDS011;32018;59.182;18.148;2023-07-30T14:30:02;2.33;;;2.23;;
46284;SDS011;32018;59.182;18.148;2023-07-30T14:32:28;2.22;;;2.10;;